Lancelin, Western Australia

12:10 AM WST on August 02, 2014 (GMT +0800)
Pearce (Military) (YPEA) Elev 148 ft | 31.67 °S, 116.02 °E | Change Station

Current weather conditions updated 1 hour ago

Clear
Clear
48 °F
Feels Like 48 °F
N
1
Wind Variable Wind from WSW

Today is forecast to be Warmer than yesterday.

Today
High -- | Low -- °F
--% Chance of Precip.
Yesterday
High -- | Low -- °F
Precip. -- in
7:05 AM 5:44 PM
Waxing Crescent, 27% visible
Pressure 30.21 in
Visibility 6.2 miles
Clouds
Dew Point 41 °F
Humidity 76%
Rainfall 0.00 in
Snow Depth Not available.
UV Not available.
Pollen Not available.
Air Quality Not available.
Flu Activity Not available.
METAR YPEA 011500Z AUTO 24001KT 9999 // NCD 09/05 Q1023

More Conditions Fewer Conditions

Pressure 30.21 in
Visibility 6.2 miles
Clouds
Dew Point 41 °F
Humidity 76%
Rainfall 0.00 in
Snow Depth Not available.
UV Not available.
Pollen Not available.
Air Quality Not available.
Flu Activity Not available.
METAR YPEA 011500Z AUTO 24001KT 9999 // NCD 09/05 Q1023

More Conditions Fewer Conditions

10-Day Weather Forecast

Almanac

Astronomy

Aug. 02, 2014 Rise Set
Actual Time 7:05 AM WST 5:44 PM WST
Civil Twilight 6:40 AM WST 6:10 PM WST
Nautical Twilight 6:11 AM WST 6:39 PM WST
Astronomical Twilight 5:42 AM WST 7:07 PM WST
Moon 10:22 AM WST (8/2) 11:25 PM WST (8/2)
Length of Visible Light 11h 30m
Length of Day
10h 39m
Tomorrow will be 1m 22s longer.
Waxing Crescent, 27% of the Moon is Illuminated
Aug 1
Waxing Crescent
Aug 3
First Quarter
Aug 10
Full
Aug 17
Last Quarter
Aug 25
New

Yesterday's Extremes

Country Highs Country Lows

Community

WunderPhotos

Upload Photos

1,739,625 photos uploaded!

Nearby

Snow Depth

Not available.

Earthquake Activity

City Distance Mag. Time & Date
No recent earthquake activity has been reported nearby.
Minimum magnitude displayed is 2.5.

Coastal Water Temperatures

Place Temperature
No Stations Reporting

Nearby Weather Stations

There are no personal weather stations in this area.